createdAt,value
2022-09-22T00:01:27.766Z,96131.50
2022-09-22T00:03:56.789Z,96139.25
2022-09-22T00:06:29.226Z,96140.44
2022-09-22T00:09:02.028Z,96144.53
2022-09-22T00:11:31.232Z,96133.13
2022-09-22T00:14:02.142Z,96136.19
2022-09-22T00:16:31.808Z,96131.28
2022-09-22T00:18:58.837Z,96131.88
2022-09-22T00:21:31.047Z,96126.22
2022-09-22T00:23:57.900Z,96126.00
2022-09-22T00:26:25.027Z,96129.66
2022-09-22T00:28:52.833Z,96133.53
2022-09-22T00:31:25.753Z,96138.41
2022-09-22T00:33:54.088Z,96127.00
2022-09-22T00:36:25.808Z,96129.06
2022-09-22T00:38:54.350Z,96134.78
2022-09-22T00:41:25.348Z,96125.81
2022-09-22T00:44:29.205Z,96130.28
2022-09-22T00:47:05.089Z,96130.91
2022-09-22T00:49:36.256Z,96134.16
2022-09-22T00:52:02.885Z,96132.72
2022-09-22T00:54:29.893Z,96129.88
2022-09-22T00:57:11.685Z,96127.84
2022-09-22T00:59:39.957Z,96133.53
2022-09-22T01:02:06.854Z,96136.19
2022-09-22T01:04:33.690Z,96130.06
2022-09-22T01:07:01.798Z,96137.19
2022-09-22T01:09:29.783Z,96135.16
2022-09-22T01:11:56.537Z,96133.75
2022-09-22T01:14:46.665Z,96135.97
2022-09-22T01:17:34.276Z,96130.28
2022-09-22T01:20:24.442Z,96130.47
2022-09-22T01:23:09.784Z,96126.59
2022-09-22T01:25:39.767Z,96121.53
2022-09-22T01:28:15.530Z,96130.28
2022-09-22T01:31:14.788Z,96118.84
2022-09-22T01:33:56.378Z,96121.72
2022-09-22T01:36:32.019Z,96125.38
2022-09-22T01:39:13.755Z,96118.66
2022-09-22T01:42:05.957Z,96107.47
2022-09-22T01:44:45.471Z,96110.28
2022-09-22T01:47:21.005Z,96107.84
2022-09-22T01:50:00.484Z,96116.81
2022-09-22T01:52:29.705Z,96113.56
2022-09-22T01:54:59.144Z,96114.78
2022-09-22T01:57:53.484Z,96123.31
2022-09-22T02:00:20.778Z,96113.13
2022-09-22T02:02:57.362Z,96116.59
2022-09-22T02:05:36.636Z,96110.50
2022-09-22T02:08:08.172Z,96114.78
2022-09-22T02:10:40.458Z,96111.09
2022-09-22T02:13:07.196Z,96105.00
2022-09-22T02:15:52.493Z,96101.72
2022-09-22T02:18:27.431Z,96105.19
2022-09-22T02:20:54.262Z,96101.09
2022-09-22T02:23:20.798Z,96106.59
2022-09-22T02:25:49.464Z,96103.16
2022-09-22T02:28:20.532Z,96102.75
2022-09-22T02:31:10.541Z,96106.63
2022-09-22T02:33:40.662Z,96105.41
2022-09-22T02:36:44.096Z,96103.78
2022-09-22T02:39:45.306Z,96100.50
2022-09-22T02:42:26.875Z,96097.88
2022-09-22T02:45:15.392Z,96101.50
2022-09-22T02:48:03.413Z,96102.97
2022-09-22T02:50:31.719Z,96092.78
2022-09-22T02:53:18.653Z,96097.88
2022-09-22T02:55:46.147Z,96092.38
2022-09-22T02:58:16.034Z,96097.88
2022-09-22T03:00:44.168Z,96102.97
2022-09-22T03:03:11.658Z,96110.69
2022-09-22T03:05:39.175Z,96110.06
2022-09-22T03:08:06.297Z,96119.59
2022-09-22T03:10:33.633Z,96118.00
2022-09-22T03:13:16.086Z,96110.66
2022-09-22T03:15:44.795Z,96110.06
2022-09-22T03:18:11.442Z,96102.88
2022-09-22T03:20:38.055Z,96105.16
2022-09-22T03:23:04.891Z,96104.94
2022-09-22T03:25:31.431Z,96119.97
2022-09-22T03:27:58.060Z,96113.66
2022-09-22T03:30:24.796Z,96114.63
2022-09-22T03:32:51.362Z,96111.81
2022-09-22T03:35:17.876Z,96113.03
2022-09-22T03:37:46.140Z,96119.91
2022-09-22T03:40:12.948Z,96124.84
2022-09-22T03:42:39.572Z,96114.69
2022-09-22T03:45:06.474Z,96118.31
2022-09-22T03:47:33.339Z,96115.47
2022-09-22T03:49:59.919Z,96108.16
2022-09-22T03:52:26.441Z,96107.72
2022-09-22T03:54:54.234Z,96109.75
2022-09-22T03:57:20.800Z,96104.03
2022-09-22T03:59:47.340Z,96112.38
2022-09-22T04:02:14.179Z,96108.97
2022-09-22T04:04:41.403Z,96111.22
2022-09-22T04:07:07.932Z,96104.88
2022-09-22T04:09:34.930Z,96104.88
2022-09-22T04:12:01.931Z,96110.78
2022-09-22T04:14:28.467Z,96107.31
2022-09-22T04:16:55.243Z,96110.59
2022-09-22T04:19:22.872Z,96116.50
2022-09-22T04:21:54.641Z,96116.50
2022-09-22T04:24:24.542Z,96118.72
2022-09-22T04:27:15.238Z,96116.69
2022-09-22T04:29:37.927Z,96113.44
2022-09-22T04:32:04.731Z,96110.78
2022-09-22T04:34:31.281Z,96111.41
2022-09-22T04:36:57.869Z,96113.03
2022-09-22T04:39:24.425Z,96116.69
2022-09-22T04:41:51.023Z,96122.19
2022-09-22T04:44:17.570Z,96129.94
2022-09-22T04:46:46.286Z,96129.50
2022-09-22T04:49:14.046Z,96128.88
2022-09-22T04:51:40.624Z,96127.84
2022-09-22T04:54:07.288Z,96132.16
2022-09-22T04:56:33.893Z,96135.19
2022-09-22T04:59:00.558Z,96128.47
2022-09-22T05:01:27.517Z,96128.91
2022-09-22T05:03:54.332Z,96124.03
2022-09-22T05:06:20.883Z,96124.03
2022-09-22T05:08:47.417Z,96130.56
2022-09-22T05:11:14.550Z,96130.16
2022-09-22T05:13:41.256Z,96133.22
2022-09-22T05:16:08.785Z,96133.84
2022-09-22T05:18:35.585Z,96134.63
2022-09-22T05:21:03.469Z,96133.41
2022-09-22T05:23:31.957Z,96136.84
2022-09-22T05:25:58.577Z,96135.84
2022-09-22T05:28:25.108Z,96130.34
2022-09-22T05:30:52.338Z,96129.50
2022-09-22T05:33:19.107Z,96131.75
2022-09-22T05:35:45.927Z,96131.75
2022-09-22T05:38:12.581Z,96134.38
2022-09-22T05:40:39.204Z,96138.69
2022-09-22T05:43:05.762Z,96138.28
2022-09-22T05:45:32.362Z,96129.75
2022-09-22T05:47:58.955Z,96137.06
2022-09-22T05:50:25.500Z,96134.25
2022-09-22T05:53:01.343Z,96142.41
2022-09-22T05:55:27.866Z,96148.13
2022-09-22T05:57:57.713Z,96149.53
2022-09-22T06:00:24.495Z,96147.66
2022-09-22T06:02:51.106Z,96145.00
2022-09-22T06:05:19.505Z,96145.63
2022-09-22T06:07:46.532Z,96143.56
2022-09-22T06:10:13.278Z,96138.50
2022-09-22T06:12:40.171Z,96143.19
2022-09-22T06:15:07.683Z,96139.56
2022-09-22T06:17:34.274Z,96148.28
2022-09-22T06:20:01.120Z,96143.00
2022-09-22T06:22:27.669Z,96148.91
2022-09-22T06:24:54.276Z,96144.44
2022-09-22T06:27:20.820Z,96153.38
2022-09-22T06:29:47.376Z,96147.09
2022-09-22T06:32:13.964Z,96150.94
2022-09-22T06:34:40.528Z,96148.09
2022-09-22T06:37:09.834Z,96154.81
2022-09-22T06:39:37.755Z,96154.81
2022-09-22T06:42:05.476Z,96158.72
2022-09-22T06:44:35.787Z,96156.66
2022-09-22T06:47:05.452Z,96161.94
2022-09-22T06:49:32.241Z,96161.50
2022-09-22T06:51:58.767Z,96166.81
2022-09-22T06:54:25.833Z,96168.06
2022-09-22T06:56:52.603Z,96160.31
2022-09-22T06:59:19.742Z,96162.34
2022-09-22T07:01:46.711Z,96167.66
2022-09-22T07:04:13.863Z,96166.03
2022-09-22T07:06:41.176Z,96159.09
2022-09-22T07:09:09.336Z,96163.59
2022-09-22T07:11:40.004Z,96174.59
2022-09-22T07:14:08.675Z,96165.22
2022-09-22T07:16:36.329Z,96162.78
2022-09-22T07:19:03.366Z,96169.53
2022-09-22T07:21:35.051Z,96170.72
2022-09-22T07:24:02.273Z,96170.53
2022-09-22T07:26:34.231Z,96175.03
2022-09-22T07:29:03.295Z,96173.38
2022-09-22T07:31:32.121Z,96175.03
2022-09-22T07:34:01.718Z,96177.06
2022-09-22T07:36:31.091Z,96182.78
2022-09-22T08:03:10.034Z,96198.69
2022-09-22T08:05:36.560Z,96204.81
2022-09-22T08:08:03.805Z,96206.25
2022-09-22T08:10:32.307Z,96209.28
2022-09-22T08:13:01.096Z,96204.00
2022-09-22T08:15:27.670Z,96209.31
2022-09-22T08:18:03.827Z,96214.41
2022-09-22T08:20:30.456Z,96218.06
2022-09-22T08:23:03.408Z,96211.38
2022-09-22T08:25:30.549Z,96204.44
2022-09-22T08:27:57.221Z,96196.31
2022-09-22T08:30:23.819Z,96203.03
2022-09-22T08:32:50.452Z,96211.63
2022-09-22T08:35:17.526Z,96206.09
2022-09-22T08:37:44.495Z,96209.94
2022-09-22T08:40:23.716Z,96221.16
2022-09-22T08:42:55.653Z,96210.34
2022-09-22T08:45:31.405Z,96210.56
2022-09-22T08:48:33.291Z,96215.66
2022-09-22T08:51:24.134Z,96222.81
2022-09-22T08:53:51.691Z,96220.75
2022-09-22T08:56:21.426Z,96229.72
2022-09-22T08:59:08.109Z,96217.31
2022-09-22T09:01:35.366Z,96216.69
2022-09-22T09:04:01.949Z,96208.53
2022-09-22T09:06:43.219Z,96212.69
2022-09-22T09:09:38.252Z,96211.84
2022-09-22T09:12:10.145Z,96216.75
2022-09-22T09:14:50.014Z,96213.50
2022-09-22T09:17:28.979Z,96215.53
2022-09-22T09:19:58.094Z,96217.16
2022-09-22T09:22:32.130Z,96224.84
2022-09-22T09:25:23.363Z,96220.44
2022-09-22T09:27:55.579Z,96215.97
2022-09-22T09:30:22.217Z,96221.66
2022-09-22T09:33:14.526Z,96224.09
2022-09-22T09:35:45.301Z,96229.00
2022-09-22T09:38:14.951Z,96217.56
2022-09-22T09:40:42.293Z,96223.06
2022-09-22T09:43:10.668Z,96220.19
2022-09-22T09:45:55.647Z,96228.56
2022-09-22T09:48:34.236Z,96227.50
2022-09-22T09:51:05.331Z,96228.13
2022-09-22T09:53:40.925Z,96226.25
2022-09-22T09:56:27.256Z,96223.03
2022-09-22T09:59:25.880Z,96220.75
2022-09-22T10:01:55.342Z,96219.59
2022-09-22T10:04:30.116Z,96220.75
2022-09-22T10:07:10.512Z,96226.47
2022-09-22T10:09:37.450Z,96217.53
2022-09-22T10:12:04.280Z,96222.03
2022-09-22T10:14:35.202Z,96230.00
2022-09-22T10:17:03.892Z,96224.28
2022-09-22T10:19:34.571Z,96233.66
2022-09-22T10:22:25.114Z,96229.00
2022-09-22T10:24:56.027Z,96229.41
2022-09-22T10:27:24.391Z,96225.13
2022-09-22T10:30:21.364Z,96217.16
2022-09-22T10:33:05.060Z,96220.22
2022-09-22T10:35:33.727Z,96217.19
2022-09-22T10:38:09.942Z,96202.91
2022-09-22T10:40:40.912Z,96209.88
2022-09-22T10:43:26.310Z,96197.41
2022-09-22T10:46:29.187Z,96200.88
2022-09-22T10:49:04.143Z,96213.13
2022-09-22T10:51:56.622Z,96205.38
2022-09-22T10:54:29.040Z,96205.78
2022-09-22T10:56:59.365Z,96200.47
2022-09-22T11:00:01.720Z,96205.56
2022-09-22T11:02:40.075Z,96203.94
2022-09-22T11:05:18.903Z,96210.88
2022-09-22T11:08:13.086Z,96204.97
2022-09-22T11:11:26.606Z,96201.50
2022-09-22T11:14:18.095Z,96196.41
2022-09-22T11:17:06.026Z,96196.78
2022-09-22T11:20:00.920Z,96192.09
2022-09-22T11:22:30.189Z,96194.31
2022-09-22T11:25:24.750Z,96190.19
2022-09-22T11:27:56.919Z,96188.97
2022-09-22T11:30:24.112Z,96191.81
2022-09-22T11:33:10.912Z,96191.38
2022-09-22T11:36:11.310Z,96189.34
2022-09-22T11:39:02.247Z,96188.16
2022-09-22T11:41:43.744Z,96185.28
2022-09-22T11:44:14.419Z,96189.56
2022-09-22T11:46:55.194Z,96177.09
2022-09-22T11:49:46.541Z,96174.63
2022-09-22T11:52:43.712Z,96163.16
2022-09-22T11:55:52.290Z,96162.72
2022-09-22T11:58:23.276Z,96175.31
2022-09-22T12:01:10.912Z,96154.44
2022-09-22T12:03:46.460Z,96160.19
2022-09-22T12:06:17.704Z,96148.72
2022-09-22T12:09:45.718Z,96145.66
2022-09-22T12:12:18.581Z,96139.22
2022-09-22T12:14:55.651Z,96128.50
2022-09-22T12:17:29.479Z,96129.59
2022-09-22T12:20:16.306Z,96129.13
2022-09-22T12:22:51.563Z,96129.50
2022-09-22T12:25:48.807Z,96134.53
2022-09-22T12:28:23.187Z,96129.81
2022-09-22T12:31:08.113Z,96135.41
2022-09-22T12:33:37.336Z,96131.72
2022-09-22T12:36:04.293Z,96123.13
2022-09-22T12:38:31.537Z,96115.69
2022-09-22T12:41:02.966Z,96122.44
2022-09-22T12:43:31.385Z,96134.97
2022-09-22T12:46:00.115Z,96130.38
2022-09-22T12:48:37.696Z,96134.03
2022-09-22T12:51:26.080Z,96130.63
2022-09-22T12:54:25.317Z,96134.59
2022-09-22T12:56:54.896Z,96144.06
2022-09-22T12:59:39.493Z,96135.16
2022-09-22T13:02:15.998Z,96139.03
2022-09-22T13:05:04.373Z,96135.97
2022-09-22T13:07:43.773Z,96132.44
2022-09-22T13:10:25.201Z,96131.00
2022-09-22T13:13:06.748Z,96133.56
2022-09-22T13:15:45.826Z,96130.84
2022-09-22T13:18:30.986Z,96124.28
2022-09-22T13:20:59.697Z,96123.41
2022-09-22T13:23:26.675Z,96122.97
2022-09-22T13:25:53.947Z,96119.47
2022-09-22T13:28:21.790Z,96116.19
2022-09-22T13:31:03.419Z,96119.63
2022-09-22T13:33:34.810Z,96117.06
2022-09-22T13:36:18.832Z,96122.00
2022-09-22T13:38:51.043Z,96117.72
2022-09-22T13:41:24.235Z,96121.13
2022-09-22T13:43:56.043Z,96114.63
2022-09-22T13:46:26.642Z,96115.38
2022-09-22T13:48:56.871Z,96114.44
2022-09-22T13:51:25.917Z,96121.78
2022-09-22T13:53:55.346Z,96122.66
2022-09-22T13:56:25.326Z,96120.75
2022-09-22T13:58:56.509Z,96120.75
2022-09-22T14:01:28.392Z,96115.88
2022-09-22T14:03:55.806Z,96111.38
2022-09-22T14:06:28.694Z,96111.09
2022-09-22T14:08:56.257Z,96112.34
2022-09-22T14:11:28.177Z,96103.34
2022-09-22T14:13:55.061Z,96102.06
2022-09-22T14:16:21.733Z,96101.00
2022-09-22T14:18:52.442Z,96097.97
2022-09-22T14:21:19.546Z,96097.31
2022-09-22T14:23:49.270Z,96100.78
2022-09-22T14:26:24.611Z,96100.69
2022-09-22T14:28:52.156Z,96113.38
2022-09-22T14:31:24.820Z,96108.94
2022-09-22T14:33:51.768Z,96101.81
2022-09-22T14:36:21.866Z,96101.56
2022-09-22T14:39:04.520Z,96105.06
2022-09-22T14:41:37.294Z,96102.19
2022-09-22T14:44:35.329Z,96104.81
2022-09-22T14:47:09.958Z,96110.50
2022-09-22T14:49:42.462Z,96114.28
2022-09-22T14:52:27.256Z,96123.47
2022-09-22T14:54:56.536Z,96119.44
2022-09-22T14:57:23.411Z,96128.94
2022-09-22T15:00:14.753Z,96119.81
2022-09-22T15:02:46.128Z,96122.91
2022-09-22T15:05:29.437Z,96124.81
2022-09-22T15:07:57.639Z,96132.41
2022-09-22T15:10:30.087Z,96132.81
2022-09-22T15:13:18.330Z,96139.16
2022-09-22T15:15:47.578Z,96136.50
2022-09-22T15:18:16.271Z,96137.69
2022-09-22T15:21:14.682Z,96127.50
2022-09-22T15:23:45.286Z,96126.06
2022-09-22T15:26:25.443Z,96129.94
2022-09-22T15:28:54.695Z,96131.41
2022-09-22T15:31:28.392Z,96138.13
2022-09-22T15:33:56.477Z,96134.47
2022-09-22T15:36:25.762Z,96130.78
2022-09-22T15:38:59.773Z,96137.69
2022-09-22T15:41:27.506Z,96138.16
2022-09-22T15:43:54.247Z,96135.13
2022-09-22T15:46:41.405Z,96134.50
2022-09-22T15:49:20.916Z,96135.38
2022-09-22T15:51:49.477Z,96124.13
2022-09-22T15:54:18.420Z,96122.09
2022-09-22T15:56:48.020Z,96119.44
2022-09-22T15:59:19.750Z,96128.06
2022-09-22T16:01:46.614Z,96127.66
2022-09-22T16:04:13.502Z,96137.41
2022-09-22T16:06:42.366Z,96126.38
2022-09-22T16:09:16.162Z,96131.69
2022-09-22T16:11:43.134Z,96136.59
2022-09-22T16:14:11.615Z,96136.16
2022-09-22T16:16:38.972Z,96128.19
2022-09-22T16:19:12.398Z,96135.13
2022-09-22T16:21:41.706Z,96133.50
2022-09-22T16:24:10.731Z,96130.47
2022-09-22T16:26:39.416Z,96130.06
2022-09-22T16:29:07.515Z,96126.78
2022-09-22T16:31:35.221Z,96136.59
2022-09-22T16:34:03.748Z,96150.09
2022-09-22T16:36:35.271Z,96145.63
2022-09-22T16:39:03.064Z,96148.09
2022-09-22T16:41:32.214Z,96135.84
2022-09-22T16:43:59.051Z,96150.56
2022-09-22T16:46:27.964Z,96145.25
2022-09-22T16:49:06.197Z,96147.31
2022-09-22T16:51:35.546Z,96137.13
2022-09-22T16:54:02.556Z,96148.56
2022-09-22T16:56:31.629Z,96150.41
2022-09-22T16:59:01.365Z,96143.28
2022-09-22T17:01:29.224Z,96150.22
2022-09-22T17:03:55.776Z,96155.16
2022-09-22T17:06:26.825Z,96149.44
2022-09-22T17:08:56.945Z,96157.22
2022-09-22T17:11:29.854Z,96158.06
2022-09-22T17:14:00.891Z,96162.97
2022-09-22T17:16:33.708Z,96169.88
2022-09-22T17:19:03.248Z,96173.94
2022-09-22T17:21:34.527Z,96174.78
2022-09-22T17:24:02.690Z,96176.41
2022-09-22T17:26:34.863Z,96180.09
2022-09-22T17:29:01.831Z,96177.03
2022-09-22T17:31:31.244Z,96178.25
2022-09-22T17:33:58.452Z,96185.38
2022-09-22T17:36:26.286Z,96177.63
2022-09-22T17:38:57.872Z,96182.94
2022-09-22T17:41:27.840Z,96186.63
2022-09-22T17:43:57.734Z,96187.00
2022-09-22T17:46:31.635Z,96192.72
2022-09-22T17:49:17.568Z,96202.72
2022-09-22T17:52:05.241Z,96208.63
2022-09-22T17:54:52.579Z,96198.66
2022-09-22T17:57:24.463Z,96213.53
2022-09-22T17:59:52.100Z,96213.72
2022-09-22T18:02:20.846Z,96223.09
2022-09-22T18:04:48.242Z,96222.28
2022-09-22T18:07:17.924Z,96226.56
2022-09-22T18:09:47.004Z,96226.16
2022-09-22T18:12:20.040Z,96233.09
2022-09-22T18:14:48.166Z,96229.22
2022-09-22T18:17:17.360Z,96220.06
2022-09-22T18:19:44.169Z,96227.38
2022-09-22T18:22:21.280Z,96218.41
2022-09-22T18:24:52.333Z,96210.66
2022-09-22T18:27:19.399Z,96215.56
2022-09-22T18:29:49.996Z,96217.78
2022-09-22T18:32:20.021Z,96213.94
2022-09-22T18:34:47.551Z,96218.63
2022-09-22T18:37:15.782Z,96220.22
2022-09-22T18:39:45.405Z,96216.59
2022-09-22T18:42:13.566Z,96219.22
2022-09-22T18:44:41.472Z,96218.00
2022-09-22T18:47:13.012Z,96220.03
2022-09-22T18:49:40.706Z,96217.56
2022-09-22T18:52:07.924Z,96213.09
2022-09-22T18:54:35.877Z,96216.56
2022-09-22T18:57:05.366Z,96214.69
2022-09-22T18:59:31.930Z,96211.03
2022-09-22T19:01:58.742Z,96208.56
2022-09-22T19:04:26.907Z,96218.53
2022-09-22T19:07:13.912Z,96218.31
2022-09-22T19:09:41.240Z,96219.34
2022-09-22T19:12:09.792Z,96214.47
2022-09-22T19:14:38.918Z,96216.69
2022-09-22T19:17:07.153Z,96199.19
2022-09-22T19:19:38.364Z,96203.44
2022-09-22T19:22:09.304Z,96201.63
2022-09-22T19:24:37.384Z,96211.81
2022-09-22T19:27:05.949Z,96210.78
2022-09-22T19:29:33.172Z,96207.50
2022-09-22T19:32:01.471Z,96203.44
2022-09-22T19:34:28.611Z,96204.06
2022-09-22T19:36:55.680Z,96203.66
2022-09-22T19:39:23.151Z,96196.34
2022-09-22T19:41:50.616Z,96185.13
2022-09-22T19:44:19.733Z,96187.16
2022-09-22T19:46:47.615Z,96198.72
2022-09-22T19:49:15.284Z,96195.50
2022-09-22T19:51:42.711Z,96191.59
2022-09-22T19:54:09.522Z,96195.06
2022-09-22T19:56:36.623Z,96205.00
2022-09-22T19:59:06.081Z,96211.50
2022-09-22T20:01:41.684Z,96204.38
2022-09-22T20:04:17.929Z,96207.16
2022-09-22T20:06:46.305Z,96211.25
2022-09-22T20:09:12.881Z,96211.66
2022-09-22T20:11:47.916Z,96213.25
2022-09-22T20:14:27.007Z,96211.00
2022-09-22T20:16:59.734Z,96213.00
2022-09-22T20:19:27.750Z,96205.84
2022-09-22T20:22:17.526Z,96206.44
2022-09-22T20:24:54.157Z,96202.56
2022-09-22T20:27:29.656Z,96198.09
2022-09-22T20:29:57.420Z,96207.84
2022-09-22T20:32:26.026Z,96197.66
2022-09-22T20:34:54.266Z,96202.50
2022-09-22T20:37:21.796Z,96198.78
2022-09-22T20:39:48.387Z,96192.69
2022-09-22T20:42:15.524Z,96188.41
2022-09-22T20:44:42.480Z,96189.22
2022-09-22T20:47:25.273Z,96184.94
2022-09-22T20:49:52.187Z,96195.25
2022-09-22T20:52:20.515Z,96195.00
2022-09-22T20:54:47.533Z,96197.03
2022-09-22T20:57:14.439Z,96205.34
2022-09-22T20:59:41.503Z,96209.03
2022-09-22T21:02:10.284Z,96207.38
2022-09-22T21:04:37.072Z,96207.00
2022-09-22T21:07:04.021Z,96208.81
2022-09-22T21:09:49.176Z,96210.44
2022-09-22T21:12:15.772Z,96208.00
2022-09-22T21:14:45.931Z,96210.22
2022-09-22T21:17:13.756Z,96201.47
2022-09-22T21:19:40.911Z,96197.81
2022-09-22T21:22:07.849Z,96202.66
2022-09-22T21:24:34.654Z,96200.41
2022-09-22T21:27:01.282Z,96201.41
2022-09-22T21:29:29.131Z,96199.78
2022-09-22T21:31:56.784Z,96193.91
2022-09-22T21:34:24.369Z,96190.91
2022-09-22T21:36:51.400Z,96192.34
2022-09-22T21:39:18.157Z,96191.16
2022-09-22T21:41:44.822Z,96189.94
2022-09-22T21:44:11.456Z,96188.88
2022-09-22T21:46:40.931Z,96183.22
2022-09-22T21:49:09.034Z,96177.94
2022-09-22T21:51:42.178Z,96178.53
2022-09-22T21:54:13.345Z,96176.50
2022-09-22T21:56:40.136Z,96172.25
2022-09-22T21:59:06.954Z,96176.19
2022-09-22T22:01:36.795Z,96170.53
2022-09-22T22:04:07.966Z,96169.38
2022-09-22T22:06:40.929Z,96173.66
2022-09-22T22:09:17.436Z,96173.91
2022-09-22T22:11:49.434Z,96178.38
2022-09-22T22:14:20.577Z,96180.22
2022-09-22T22:16:50.058Z,96179.19
2022-09-22T22:19:20.219Z,96166.16
2022-09-22T22:21:50.394Z,96170.22
2022-09-22T22:24:19.051Z,96170.22
2022-09-22T22:26:47.458Z,96164.75
2022-09-22T22:29:14.592Z,96173.47
2022-09-22T22:31:42.048Z,96173.47
2022-09-22T22:34:13.289Z,96169.84
2022-09-22T22:36:40.841Z,96172.47
2022-09-22T22:39:09.568Z,96173.09
2022-09-22T22:41:36.452Z,96168.19
2022-09-22T22:44:03.351Z,96160.88
2022-09-22T22:46:30.037Z,96160.69
2022-09-22T22:48:57.748Z,96161.50
2022-09-22T22:51:24.862Z,96158.47
2022-09-22T22:53:53.414Z,96161.53
2022-09-22T22:56:22.867Z,96163.97
2022-09-22T22:58:50.831Z,96155.63
2022-09-22T23:01:17.617Z,96160.13
2022-09-22T23:03:50.698Z,96152.81
2022-09-22T23:06:20.039Z,96156.25
2022-09-22T23:08:47.149Z,96149.97
2022-09-22T23:11:21.226Z,96152.81
2022-09-22T23:13:50.996Z,96142.22
2022-09-22T23:16:23.801Z,96139.94
2022-09-22T23:18:51.578Z,96142.59
2022-09-22T23:21:20.399Z,96142.22
2022-09-22T23:23:48.064Z,96141.19
2022-09-22T23:26:16.047Z,96140.19
2022-09-22T23:28:42.878Z,96133.28
2022-09-22T23:31:13.765Z,96135.72
2022-09-22T23:33:46.060Z,96137.53
2022-09-22T23:36:15.187Z,96136.13
2022-09-22T23:38:41.917Z,96134.03
2022-09-22T23:41:08.896Z,96127.31
2022-09-22T23:43:35.606Z,96129.97
2022-09-22T23:46:04.674Z,96132.41
2022-09-22T23:48:33.175Z,96129.94
2022-09-22T23:51:00.360Z,96131.13
2022-09-22T23:53:36.216Z,96134.16
2022-09-22T23:56:03.821Z,96135.63
2022-09-22T23:58:31.311Z,96128.69
